Fort McMurray, Alberta

11:59 PM MDT on October 21, 2014 (GMT -0600)
Fort Mcmurray | Change Station
CLOSE
Current Station
Airport
Location: Fort Mcmurray,
Elevation: 1211 ft
Nearby Weather Stations

Elev 1211 ft 56.65 °N, 111.22 °W | Updated 59 minutes ago

Clear
Clear
41 °F
Feels Like 41 °F
N
0
Wind Variable Wind from North

Tomorrow is forecast to be nearly the same temperature as today.

Today
High -- | Low -- °F
--% Chance of Precip.
Yesterday
High -- | Low -- °F
Precip. -- in
8:10 AM 6:07 PM
Waning Crescent, 3% visible
Pressure 29.69 in
Visibility 9.0 miles
Clouds Clear
Dew Point 36 °F
Humidity 81%
Rainfall 0.00 in
Snow Depth Not available.
UV 0 out of 12
Pollen Not available.
Air Quality Not available.
Flu Activity Not available.
METAR CYMM 220500Z AUTO 00000KT 9SM CLR 05/02 A2964 RMK SLP052

More Conditions Fewer Conditions

Pressure 29.69 in
Visibility 9.0 miles
Clouds Clear
Dew Point 36 °F
Humidity 81%
Rainfall 0.00 in
Snow Depth Not available.
UV 0 out of 12
Pollen Not available.
Air Quality Not available.
Flu Activity Not available.
METAR CYMM 220500Z AUTO 00000KT 9SM CLR 05/02 A2964 RMK SLP052

More Conditions Fewer Conditions

10-Day Weather Forecast

Almanac

Astronomy

Oct. 21, 2014 Rise Set
Actual Time 8:10 AM MDT 6:07 PM MDT
Civil Twilight 7:31 AM MDT 6:46 PM MDT
Nautical Twilight 6:47 AM MDT 7:30 PM MDT
Astronomical Twilight 6:03 AM MDT 8:13 PM MDT
Moon 5:34 AM MDT (10/21) 5:22 PM MDT (10/21)
Length of Visible Light 11h 14m
Length of Day
9h 57m
Tomorrow will be 4m 36s shorter.
Waning Crescent, 3% of the Moon is Illuminated
Oct 22
Waning Crescent
Oct 23
New
Oct 30
First Quarter
Nov 6
Full
Nov 14
Last Quarter

Today's Extremes

Country Highs Country Lows

Community

WunderPhotos

Upload Photos

1,763,886 photos uploaded!

Nearby

Snow Depth

Not available.

Earthquake Activity

City Distance Mag. Time & Date
No recent earthquake activity has been reported nearby.
Minimum magnitude displayed is 2.5.

Coastal Water Temperatures

Place Temperature
No Stations Reporting

Nearby Weather Stations